Home > Products > Valid Products > TAF

000
FTUS44 KFWD 280337 AAB
TAFDFW
TAF AMD
KDFW 280337Z 2804/2906 02013G23KT P6SM SCT009 BKN200
     FM280600 02013G23KT P6SM VCSH SCT008 OVC010
     FM281200 01013G23KT P6SM VCSH OVC008
      TEMPO 2817/2821 4SM -TSRA BKN015CB
     FM282100 01015G25KT P6SM OVC012
     FM290000 01013KT P6SM OVC025=



000
FTUS44 KFWD 280337 AAB
TAFACT
TAF AMD
KACT 280337Z 2804/2824 33010KT P6SM BKN010
     FM280500 36013G23KT P6SM VCSH BKN010
     FM280900 36013G23KT P6SM VCSH OVC008
     FM281600 36014G24KT P6SM VCSH OVC015
      TEMPO 2817/2821 4SM -TSRA BKN015CB=



000
FTUS44 KFWD 280337 AAB
TAFFTW
TAF AMD
KFTW 280337Z 2804/2824 03012G22KT P6SM SCT010 BKN120
     FM280600 02013G23KT P6SM VCSH SCT008 OVC010
     FM281200 01013G23KT P6SM VCSH OVC008
      TEMPO 2817/2821 4SM -TSRA BKN015CB
     FM282100 01015G25KT P6SM OVC012=



000
FTUS44 KFWD 280152 AAA
TAFDFW
TAF AMD
KDFW 280152Z 2802/2906 02013G23KT P6SM SCT008 OVC012
      TEMPO 2802/2804 BKN008
     FM281200 01013G23KT P6SM OVC009
     FM282100 01015G25KT P6SM OVC012
     FM290000 01013KT P6SM OVC025=



000
FTUS44 KFWD 280152 AAA
TAFFTW
TAF AMD
KFTW 280152Z 2802/2824 02013G23KT P6SM BKN008 OVC012
     FM281200 01013G23KT P6SM OVC008
     FM282100 01015G25KT P6SM OVC012=



000
FTUS44 KFWD 280152 AAA
TAFDFW
TAF AMD
KDFW 280152Z 2802/2906 02013G23KT P6SM SCT008 OVC012
      TEMPO 2802/2804 BKN008
     FM281200 01013G23KT P6SM OVC009
     FM282100 01015G25KT P6SM OVC012
     FM290000 01013KT P6SM OVC025=



000
FTUS44 KFWD 280152 AAA
TAFFTW
TAF AMD
KFTW 280152Z 2802/2824 02013G23KT P6SM BKN008 OVC012
     FM281200 01013G23KT P6SM OVC008
     FM282100 01015G25KT P6SM OVC012=



000
FTUS44 KFWD 280001 AAA
TAFACT
TAF AMD
KACT 280001Z 2800/2824 05006KT P6SM SCT035 BKN150
      TEMPO 2800/2802 4SM TSRA BKN035CB
     FM280400 36013G23KT P6SM BKN015
     FM280600 36013G23KT P6SM OVC008
     FM281700 36014G24KT P6SM OVC015=



000
FTUS44 KFWD 280001 AAA
TAFACT
TAF AMD
KACT 280001Z 2800/2824 05006KT P6SM SCT035 BKN150
      TEMPO 2800/2802 4SM TSRA BKN035CB
     FM280400 36013G23KT P6SM BKN015
     FM280600 36013G23KT P6SM OVC008
     FM281700 36014G24KT P6SM OVC015=



000
FTUS44 KFWD 272340
TAFFTW
TAF
KFTW 272340Z 2800/2824 03010KT P6SM VCTS SCT015 OVC025CB
      TEMPO 2800/2801 3SM -TSRA BKN025CB
     FM280300 01013G23KT P6SM OVC012
     FM281200 01013G23KT P6SM OVC009
     FM282100 01015G25KT P6SM OVC012=



000
FTUS44 KFWD 272340
TAFFTW
TAF
KFTW 272340Z 2800/2824 03010KT P6SM VCTS SCT015 OVC025CB
      TEMPO 2800/2801 3SM -TSRA BKN025CB
     FM280300 01013G23KT P6SM OVC012
     FM281200 01013G23KT P6SM OVC009
     FM282100 01015G25KT P6SM OVC012=



000
FTUS44 KFWD 272340
TAFDFW
TAF
KDFW 272340Z 2800/2906 03010KT P6SM VCTS SCT015 OVC025CB
      TEMPO 2800/2801 3SM -TSRA BKN025CB
     FM280300 01013G23KT P6SM OVC012
     FM281200 01013G23KT P6SM OVC009
     FM282100 01015G25KT P6SM OVC012
     FM290000 01013KT P6SM OVC025=



000
FTUS44 KFWD 272340
TAFACT
TAF
KACT 272340Z 2800/2824 35006KT P6SM BKN035
     FM280400 36013G23KT P6SM BKN015
     FM280600 36013G23KT P6SM OVC008
     FM281700 36014G24KT P6SM OVC015=



000
FTUS44 KFWD 272340
TAFDFW
TAF
KDFW 272340Z 2800/2906 03010KT P6SM VCTS SCT015 OVC025CB
      TEMPO 2800/2801 3SM -TSRA BKN025CB
     FM280300 01013G23KT P6SM OVC012
     FM281200 01013G23KT P6SM OVC009
     FM282100 01015G25KT P6SM OVC012
     FM290000 01013KT P6SM OVC025=



000
FTUS44 KFWD 272340
TAFACT
TAF
KACT 272340Z 2800/2824 35006KT P6SM BKN035
     FM280400 36013G23KT P6SM BKN015
     FM280600 36013G23KT P6SM OVC008
     FM281700 36014G24KT P6SM OVC015=



000
FTUS44 KFWD 272121 AAB
TAFFTW
TAF AMD
KFTW 272121Z 2721/2818 10011KT P6SM OVC030
     FM272200 05007KT P6SM VCTS SCT015 BKN050CB
      TEMPO 2722/2802 5SM -TSRA BKN025CB
     FM280300 01014G24KT P6SM OVC012
      TEMPO 2809/2812 BKN009=



000
FTUS44 KFWD 272022 AAA
TAFACT
TAF AMD
KACT 272022Z 2720/2818 35006KT P6SM BKN035
     FM280400 36013G23KT P6SM BKN015
      TEMPO 2806/2810 BKN008=



000
FTUS44 KFWD 272019 AAA
TAFFTW
TAF AMD
KFTW 272019Z 2720/2818 10011KT P6SM BKN035
     FM272300 05007KT P6SM VCTS SCT015 BKN050CB
      TEMPO 2723/2802 5SM -TSRA BKN025CB
     FM280300 01014G24KT P6SM OVC012
      TEMPO 2809/2812 BKN009=



000
FTUS44 KFWD 272017 AAA
TAFDFW
TAF AMD
KDFW 272017Z 2720/2824 08011KT P6SM SCT025 BKN035
     FM272300 04007KT P6SM VCTS SCT015 BKN050CB
      TEMPO 2723/2802 5SM -TSRA BKN025CB
     FM280300 01014G24KT P6SM OVC012
      TEMPO 2809/2812 BKN009=



000
FTUS44 KFWD 271807 CCA
TAFFTW
TAF COR
KFTW 271807Z 2718/2818 07007KT P6SM VCSH SCT025 OVC035
     FM271900 05011KT P6SM VCTS SCT025 BKN035 BKN060CB
      TEMPO 2720/2722 4SM -TSRA BR BKN020CB
     FM272300 03007KT 5SM BR VCSH SCT015 SCT030 BKN050
     FM280400 01014G24KT P6SM OVC012
      TEMPO 2809/2812 BKN009=



000
FTUS44 KFWD 271807 CCA
TAFDFW
TAF COR
KDFW 271807Z 2718/2824 08006KT P6SM VCSH OVC030
     FM271900 06011KT P6SM VCTS SCT025 BKN035 BKN060CB
      TEMPO 2720/2722 4SM -TSRA BR BKN020CB
     FM272300 04007KT 5SM BR VCSH SCT015 SCT030 BKN050
     FM280400 01014G24KT P6SM OVC012
      TEMPO 2809/2812 BKN009=



000
FTUS44 KFWD 271807 CCA
TAFACT
TAF COR
KACT 271807Z 2718/2818 VRB03KT P6SM VCSH FEW025 OVC035
     FM271900 13006KT P6SM VCTS BKN035 OVC050CB
     FM272200 06006KT P6SM SCT015 BKN035
     FM280000 03009KT P6SM SCT020 SCT250
     FM280400 36013G23KT P6SM BKN015
      TEMPO 2806/2810 BKN008=



000
FTUS44 KFWD 271807 CCA
TAFDFW
TAF COR
KDFW 271807Z 2718/2824 08006KT P6SM VCSH OVC030
     FM271900 06011KT P6SM VCTS SCT025 BKN035 BKN060CB
      TEMPO 2720/2722 4SM -TSRA BR BKN020CB
     FM272300 04007KT 5SM BR VCSH SCT015 SCT030 BKN050
     FM280400 01014G24KT P6SM OVC012
      TEMPO 2809/2812 BKN009=



000
FTUS44 KFWD 271807 CCA
TAFFTW
TAF COR
KFTW 271807Z 2718/2818 07007KT P6SM VCSH SCT025 OVC035
     FM271900 05011KT P6SM VCTS SCT025 BKN035 BKN060CB
      TEMPO 2720/2722 4SM -TSRA BR BKN020CB
     FM272300 03007KT 5SM BR VCSH SCT015 SCT030 BKN050
     FM280400 01014G24KT P6SM OVC012
      TEMPO 2809/2812 BKN009=



000
FTUS44 KFWD 271807 CCA
TAFACT
TAF COR
KACT 271807Z 2718/2818 VRB03KT P6SM VCSH FEW025 OVC035
     FM271900 13006KT P6SM VCTS BKN035 OVC050CB
     FM272200 06006KT P6SM SCT015 BKN035
     FM280000 03009KT P6SM SCT020 SCT250
     FM280400 36013G23KT P6SM BKN015
      TEMPO 2806/2810 BKN008=



000
FTUS44 KFWD 271739
TAFACT
TAF
KACT 271739Z 2718/2818 14008KT P6SM VCSH BKN025
     FM271900 13010KT P6SM VCTS BKN035 OVC050CB
     FM272200 15006KT P6SM SCT015 BKN035
     FM280000 03009KT P6SM SCT020 SCT250
     FM280400 36013G23KT P6SM BKN015
      TEMPO 2806/2810 BKN008=



000
FTUS44 KFWD 271739
TAFDFW
TAF
KDFW 271739Z 2718/2824 09013KT P6SM VCSH BKN025 OVC050
     FM271900 07011KT P6SM VCTS SCT025 BKN035 BKN060CB
      TEMPO 2720/2722 4SM -TSRA BR BKN020CB
     FM272300 04007KT 5SM BR VCSH SCT015 SCT030 BKN050
     FM280400 01014G24KT P6SM OVC012
      TEMPO 2809/2812 BKN009=



000
FTUS44 KFWD 271739
TAFFTW
TAF
KFTW 271739Z 2718/2818 09013KT P6SM VCSH BKN025 OVC050
     FM271900 07011KT P6SM VCTS SCT025 BKN035 BKN060CB
      TEMPO 2720/2722 4SM -TSRA BR BKN020CB
     FM272300 04007KT 5SM BR VCSH SCT015 SCT030 BKN050
     FM280400 01014G24KT P6SM OVC012
      TEMPO 2809/2812 BKN009=



000
FTUS44 KFWD 271739
TAFACT
TAF
KACT 271739Z 2718/2818 14008KT P6SM VCSH BKN025
     FM271900 13010KT P6SM VCTS BKN035 OVC050CB
     FM272200 15006KT P6SM SCT015 BKN035
     FM280000 03009KT P6SM SCT020 SCT250
     FM280400 36013G23KT P6SM BKN015
      TEMPO 2806/2810 BKN008=



000
FTUS44 KFWD 271739
TAFDFW
TAF
KDFW 271739Z 2718/2824 09013KT P6SM VCSH BKN025 OVC050
     FM271900 07011KT P6SM VCTS SCT025 BKN035 BKN060CB
      TEMPO 2720/2722 4SM -TSRA BR BKN020CB
     FM272300 04007KT 5SM BR VCSH SCT015 SCT030 BKN050
     FM280400 01014G24KT P6SM OVC012
      TEMPO 2809/2812 BKN009=



000
FTUS44 KFWD 271739
TAFFTW
TAF
KFTW 271739Z 2718/2818 09013KT P6SM VCSH BKN025 OVC050
     FM271900 07011KT P6SM VCTS SCT025 BKN035 BKN060CB
      TEMPO 2720/2722 4SM -TSRA BR BKN020CB
     FM272300 04007KT 5SM BR VCSH SCT015 SCT030 BKN050
     FM280400 01014G24KT P6SM OVC012
      TEMPO 2809/2812 BKN009=



000
FTUS44 KFWD 271508 AAA
TAFDFW
TAF AMD
KDFW 271508Z 2715/2818 10015KT P6SM BKN015 BKN025
     FM271730 06014KT 6SM -SHRA BR VCTS BKN025 BKN060CB
     FM272200 03012KT 5SM -RA BR BKN015
     FM280000 03010KT P6SM OVC006
     FM281500 04012KT P6SM OVC012=



000
FTUS44 KFWD 271508 AAB
TAFACT
TAF AMD
KACT 271508Z 2715/2812 10013KT P6SM SCT020 SCT100
     FM271800 08011KT P6SM VCTS BKN040CB
     FM272100 05010KT P6SM BKN035
     FM280000 04009KT P6SM BKN020=



000
FTUS44 KFWD 271508 AAB
TAFFTW
TAF AMD
KFTW 271508Z 2715/2812 10015KT P6SM BKN015 BKN025
     FM271730 06014KT 6SM -SHRA BR VCTS BKN025 BKN060CB
     FM272200 03012KT 5SM -RA BR BKN015
     FM280000 03010KT P6SM OVC006=



000
FTUS44 KFWD 271436 AAA
TAFFTW
TAF AMD
KFTW 271436Z 2715/2812 09013KT P6SM SCT020
      TEMPO 2715/2718 BKN015
     FM271800 06014KT 5SM -SHRA BR VCTS BKN008CB
     FM272200 03012KT 5SM -RA BR OVC006
     FM280000 03010KT P6SM OVC006=



000
FTUS44 KFWD 271436 AAA
TAFACT
TAF AMD
KACT 271436Z 2715/2812 10004KT P6SM FEW040 SCT110
     FM271600 09012KT 5SM -RA BR VCTS BKN040CB
     FM272100 02010KT P6SM OVC015
     FM280300 03006KT P6SM OVC008=



000
FTUS44 KFWD 271436 AAA
TAFFTW
TAF AMD
KFTW 271436Z 2715/2812 09013KT P6SM SCT020
      TEMPO 2715/2718 BKN015
     FM271800 06014KT 5SM -SHRA BR VCTS BKN008CB
     FM272200 03012KT 5SM -RA BR OVC006
     FM280000 03010KT P6SM OVC006=



000
FTUS44 KFWD 271436 AAA
TAFACT
TAF AMD
KACT 271436Z 2715/2812 10004KT P6SM FEW040 SCT110
     FM271600 09012KT 5SM -RA BR VCTS BKN040CB
     FM272100 02010KT P6SM OVC015
     FM280300 03006KT P6SM OVC008=



000
FTUS44 KFWD 271133
TAFDFW
TAF
KDFW 271133Z 2712/2818 09012KT P6SM FEW015 BKN200
     FM271300 09012KT P6SM BKN015
     FM271600 09012KT 5SM -RA BR BKN008
     FM271800 06014KT 5SM -SHRA BR VCTS BKN008CB
     FM272200 03012KT 5SM -RA BR OVC006
     FM280000 03010KT P6SM OVC006
     FM281500 04012KT P6SM OVC012=



000
FTUS44 KFWD 271133
TAFFTW
TAF
KFTW 271133Z 2712/2812 09012KT P6SM BKN015
     FM271600 09012KT 5SM -RA BR BKN008
     FM271800 06014KT 5SM -SHRA BR VCTS BKN008CB
     FM272200 03012KT 5SM -RA BR OVC006
     FM280000 03010KT P6SM OVC006=



000
FTUS44 KFWD 271133
TAFACT
TAF
KACT 271133Z 2712/2812 12009KT P6SM SCT100
     FM271300 07010KT P6SM OVC012
     FM271600 09012KT 5SM -RA BR VCTS SCT008CB OVC015
     FM272100 02010KT P6SM OVC015
     FM280300 03006KT P6SM OVC008=



000
FTUS44 KFWD 271133
TAFDFW
TAF
KDFW 271133Z 2712/2818 09012KT P6SM FEW015 BKN200
     FM271300 09012KT P6SM BKN015
     FM271600 09012KT 5SM -RA BR BKN008
     FM271800 06014KT 5SM -SHRA BR VCTS BKN008CB
     FM272200 03012KT 5SM -RA BR OVC006
     FM280000 03010KT P6SM OVC006
     FM281500 04012KT P6SM OVC012=



000
FTUS44 KFWD 271133
TAFFTW
TAF
KFTW 271133Z 2712/2812 09012KT P6SM BKN015
     FM271600 09012KT 5SM -RA BR BKN008
     FM271800 06014KT 5SM -SHRA BR VCTS BKN008CB
     FM272200 03012KT 5SM -RA BR OVC006
     FM280000 03010KT P6SM OVC006=



000
FTUS44 KFWD 271133
TAFACT
TAF
KACT 271133Z 2712/2812 12009KT P6SM SCT100
     FM271300 07010KT P6SM OVC012
     FM271600 09012KT 5SM -RA BR VCTS SCT008CB OVC015
     FM272100 02010KT P6SM OVC015
     FM280300 03006KT P6SM OVC008=



000
FTUS44 KFWD 270908 AAB
TAFDFW
TAF AMD
KDFW 270908Z 2709/2812 10012KT P6SM BKN035 BKN110
      TEMPO 2709/2710 12020G30KT
     FM271200 06010KT P6SM BKN015
     FM271600 09010KT 5SM -RA BR VCTS BKN008CB
     FM271900 06010KT 5SM -SHRA BR VCTS BKN008CB PROB30 2719/2723
      4SM TSRA BKN008CB
     FM280000 03010KT 5SM -RA BR OVC006=



000
FTUS44 KFWD 270908 AAA
TAFACT
TAF AMD
KACT 270908Z 2709/2806 12012KT P6SM VCTS BKN015CB OVC080
     FM271000 07010KT P6SM VCSH OVC015
     FM271300 06010KT P6SM OVC010
     FM271600 09010KT 5SM -RA BR VCTS SCT008CB OVC015 PROB30
      2719/2723 4SM TSRA BKN008CB
     FM272300 02006KT P6SM OVC015=



000
FTUS44 KFWD 270908 AAB
TAFFTW
TAF AMD
KFTW 270908Z 2709/2806 10012KT P6SM BKN035 BKN110
      TEMPO 2709/2710 12020G30KT
     FM271200 06010KT P6SM BKN015
     FM271600 09010KT 5SM -RA BR VCTS BKN008CB
     FM271900 06010KT 5SM -SHRA BR VCTS BKN008CB PROB30 2719/2723
      4SM TSRA BKN008CB
     FM280000 03010KT 5SM -RA BR OVC006=



000
FTUS44 KFWD 270827 AAA
TAFFTW
TAF AMD
KFTW 270827Z 2708/2806 10012KT P6SM BKN035 BKN110
     FM271200 06010KT P6SM BKN015
     FM271600 09010KT 5SM -RA BR VCTS BKN008CB
     FM271900 06010KT 5SM -SHRA BR VCTS BKN008CB PROB30 2719/2723
      4SM TSRA BKN008CB
     FM280000 03010KT 5SM -RA BR OVC006=



000
FTUS44 KFWD 270827 AAA
TAFDFW
TAF AMD
KDFW 270827Z 2708/2812 10012KT P6SM BKN035 BKN110
     FM271200 06010KT P6SM BKN015
     FM271600 09010KT 5SM -RA BR VCTS BKN008CB
     FM271900 06010KT 5SM -SHRA BR VCTS BKN008CB PROB30 2719/2723
      4SM TSRA BKN008CB
     FM280000 03010KT 5SM -RA BR OVC006=



000
FTUS44 KFWD 270532
TAFACT
TAF
KACT 270532Z 2706/2806 15015KT P6SM VCTS SCT015CB OVC030
      TEMPO 2706/2709 32015G25KT 3SM TSRA BKN015CB
     FM270900 12012KT P6SM VCTS BKN015CB OVC080
     FM271000 07010KT P6SM VCSH OVC015
     FM271300 06010KT P6SM OVC010
     FM271600 09010KT 5SM -RA BR VCTS SCT008CB OVC015 PROB30
      2719/2723 4SM TSRA BKN008CB
     FM272300 02006KT P6SM OVC015=



000
FTUS44 KFWD 270532
TAFDFW
TAF
KDFW 270532Z 2706/2812 05014KT 6SM -TSRA BKN035CB BKN080
      TEMPO 2706/2708 4SM -TSRA BKN035CB
     FM270900 05012KT P6SM VCTS BKN020CB OVC080
     FM271200 07010KT P6SM VCSH OVC009
     FM271600 09010KT 5SM -RA BR VCTS BKN008CB
     FM271900 06010KT 5SM -SHRA BR VCTS BKN008CB PROB30 2719/2723
      4SM TSRA BKN008CB
     FM280000 03010KT 5SM -RA BR OVC006=



000
FTUS44 KFWD 270532
TAFFTW
TAF
KFTW 270532Z 2706/2806 05014KT 6SM -TSRA BKN035CB BKN080
      TEMPO 2706/2708 4SM -TSRA BKN035CB
     FM270900 05012KT P6SM VCTS BKN020CB OVC080
     FM271200 07010KT P6SM VCSH OVC009
     FM271600 09010KT 5SM -RA BR VCTS BKN008CB
     FM271900 06010KT 5SM -SHRA BR VCTS BKN008CB PROB30 2719/2723
      4SM TSRA BKN008CB
     FM280000 03010KT 5SM -RA BR OVC006=



000
FTUS44 KFWD 270425 AAC
TAFACT
TAF AMD
KACT 270425Z 2704/2724 13015KT P6SM BKN018 BKN100
     FM270700 12012KT P6SM VCTS BKN015CB OVC080
     FM271000 07010KT P6SM VCSH OVC015
     FM271300 06010KT P6SM OVC010
     FM271600 09010KT 5SM -RA BR VCTS SCT008CB OVC015 PROB30
      2719/2723 4SM TSRA BKN008CB=



000
FTUS44 KFWD 270425 AAC
TAFACT
TAF AMD
KACT 270425Z 2704/2724 13015KT P6SM BKN018 BKN100
     FM270700 12012KT P6SM VCTS BKN015CB OVC080
     FM271000 07010KT P6SM VCSH OVC015
     FM271300 06010KT P6SM OVC010
     FM271600 09010KT 5SM -RA BR VCTS SCT008CB OVC015 PROB30
      2719/2723 4SM TSRA BKN008CB=



000
FTUS44 KFWD 270304 AAC
TAFFTW
TAF AMD
KFTW 270304Z 2703/2724 10015KT P6SM VCTS SCT035 BKN060CB
      TEMPO 2703/2706 4SM -TSRA BKN035CB
     FM270800 12012KT 4SM -TSRA BKN020CB OVC080
     FM271200 09010KT P6SM VCSH OVC015
     FM271600 09010KT 5SM -RA BR VCTS SCT008CB OVC015
     FM271900 06010KT 5SM -SHRA BR VCTS BKN008CB PROB30 2719/2723
      4SM TSRA BKN008CB=



000
FTUS44 KFWD 270304 AAC
TAFDFW
TAF AMD
KDFW 270304Z 2703/2806 10015KT P6SM VCTS SCT035 BKN080CB
      TEMPO 2703/2706 4SM -TSRA BKN035CB
     FM270800 12012KT 4SM -TSRA BKN020CB OVC080
     FM271200 09010KT P6SM VCSH OVC015
     FM271600 09010KT 5SM -RA BR VCTS SCT008CB OVC015
     FM271900 06010KT 5SM -SHRA BR VCTS BKN008CB PROB30 2719/2723
      4SM TSRA BKN008CB
     FM280000 04010KT 5SM -RA BR OVC006=



000
FTUS44 KFWD 270304 AAB
TAFACT
TAF AMD
KACT 270304Z 2703/2724 13015KT P6SM SCT050 BKN100
     FM270500 12012KT 4SM -TSRA BKN020CB OVC080
     FM271000 07010KT P6SM VCSH OVC015
     FM271300 06010KT P6SM OVC010
     FM271600 09010KT 5SM -RA BR VCTS SCT008CB OVC015 PROB30
      2719/2723 4SM TSRA BKN008CB=



000
FTUS44 KFWD 270304 AAC
TAFDFW
TAF AMD
KDFW 270304Z 2703/2806 10015KT P6SM VCTS SCT035 BKN080CB
      TEMPO 2703/2706 4SM -TSRA BKN035CB
     FM270800 12012KT 4SM -TSRA BKN020CB OVC080
     FM271200 09010KT P6SM VCSH OVC015
     FM271600 09010KT 5SM -RA BR VCTS SCT008CB OVC015
     FM271900 06010KT 5SM -SHRA BR VCTS BKN008CB PROB30 2719/2723
      4SM TSRA BKN008CB
     FM280000 04010KT 5SM -RA BR OVC006=



000
FTUS44 KFWD 270304 AAB
TAFACT
TAF AMD
KACT 270304Z 2703/2724 13015KT P6SM SCT050 BKN100
     FM270500 12012KT 4SM -TSRA BKN020CB OVC080
     FM271000 07010KT P6SM VCSH OVC015
     FM271300 06010KT P6SM OVC010
     FM271600 09010KT 5SM -RA BR VCTS SCT008CB OVC015 PROB30
      2719/2723 4SM TSRA BKN008CB=



000
FTUS44 KFWD 270304 AAC
TAFFTW
TAF AMD
KFTW 270304Z 2703/2724 10015KT P6SM VCTS SCT035 BKN060CB
      TEMPO 2703/2706 4SM -TSRA BKN035CB
     FM270800 12012KT 4SM -TSRA BKN020CB OVC080
     FM271200 09010KT P6SM VCSH OVC015
     FM271600 09010KT 5SM -RA BR VCTS SCT008CB OVC015
     FM271900 06010KT 5SM -SHRA BR VCTS BKN008CB PROB30 2719/2723
      4SM TSRA BKN008CB=



000
FTUS44 KFWD 270225 AAB
TAFFTW
TAF AMD
KFTW 270225Z 2702/2724 12015G25KT P6SM VCTS SCT035 BKN100CB
      TEMPO 2703/2707 4SM -TSRA BKN035CB
     FM270800 12012KT 4SM -TSRA BKN020CB OVC080
     FM271200 09010KT P6SM VCSH OVC015
     FM271600 09010KT 5SM -RA BR VCTS SCT008CB OVC015
     FM271900 06010KT 5SM -SHRA BR VCTS BKN008CB PROB30 2719/2723
      4SM TSRA BKN008CB=



000
FTUS44 KFWD 270225 AAB
TAFDFW
TAF AMD
KDFW 270225Z 2702/2806 12015G25KT P6SM VCTS SCT035 BKN070CB
      TEMPO 2703/2707 4SM -TSRA BKN035CB
     FM270800 12012KT 4SM -TSRA BKN020CB OVC080
     FM271200 09010KT P6SM VCSH OVC015
     FM271600 09010KT 5SM -RA BR VCTS SCT008CB OVC015
     FM271900 06010KT 5SM -SHRA BR VCTS BKN008CB PROB30 2719/2723
      4SM TSRA BKN008CB
     FM280000 04010KT 5SM -RA BR OVC006=



000
FTUS44 KFWD 270225 AAA
TAFACT
TAF AMD
KACT 270225Z 2702/2724 13010KT P6SM SCT050 BKN100
     FM270500 12012KT 4SM -TSRA BKN020CB OVC080
     FM271000 07010KT P6SM VCSH OVC015
     FM271300 06010KT P6SM OVC010
     FM271600 09010KT 5SM -RA BR VCTS SCT008CB OVC015 PROB30
      2719/2723 4SM TSRA BKN008CB=



000
FTUS44 KFWD 270105 AAA
TAFDFW
TAF AMD
KDFW 270105Z 2701/2806 15008KT P6SM VCTS SCT035 BKN060CB
      TEMPO 2702/2706 4SM -TSRA BKN035CB
     FM270800 12012KT 4SM -TSRA BKN020CB OVC080
     FM271200 09010KT P6SM VCSH OVC015
     FM271600 09010KT 5SM -RA BR VCTS SCT008CB OVC015
     FM271900 06010KT 5SM -SHRA BR VCTS BKN008CB PROB30 2719/2723
      4SM TSRA BKN008CB
     FM280000 04010KT 5SM -RA BR OVC006=



000
FTUS44 KFWD 270105 AAA
TAFFTW
TAF AMD
KFTW 270105Z 2701/2724 15008KT P6SM VCTS SCT035 BKN060CB
      TEMPO 2702/2706 4SM -TSRA BKN035CB
     FM270800 12012KT 4SM -TSRA BKN020CB OVC080
     FM271200 09010KT P6SM VCSH OVC015
     FM271600 09010KT 5SM -RA BR VCTS SCT008CB OVC015
     FM271900 06010KT 5SM -SHRA BR VCTS BKN008CB PROB30 2719/2723
      4SM TSRA BKN008CB=



000
FTUS44 KFWD 270105 AAA
TAFFTW
TAF AMD
KFTW 270105Z 2701/2724 15008KT P6SM VCTS SCT035 BKN060CB
      TEMPO 2702/2706 4SM -TSRA BKN035CB
     FM270800 12012KT 4SM -TSRA BKN020CB OVC080
     FM271200 09010KT P6SM VCSH OVC015
     FM271600 09010KT 5SM -RA BR VCTS SCT008CB OVC015
     FM271900 06010KT 5SM -SHRA BR VCTS BKN008CB PROB30 2719/2723
      4SM TSRA BKN008CB=



000
FTUS44 KFWD 262325
TAFACT
TAF
KACT 262325Z 2700/2724 13010KT P6SM SCT050 BKN130
      TEMPO 2701/2704 -TSRA BKN050CB
     FM270500 12012KT 4SM -TSRA BKN020CB OVC080
     FM271000 07010KT P6SM VCSH OVC015
     FM271300 06010KT P6SM OVC010
     FM271600 09010KT 5SM -RA BR VCTS SCT008CB OVC015 PROB30
      2719/2723 4SM TSRA BKN008CB=



000
FTUS44 KFWD 262325
TAFDFW
TAF
KDFW 262325Z 2700/2806 15008KT P6SM VCTS SCT035 BKN060CB
     FM270500 12012KT 4SM -TSRA BKN020CB OVC080
     FM271000 09010KT P6SM VCSH OVC015
     FM271600 09010KT 5SM -RA BR VCTS SCT008CB OVC015
     FM271900 06010KT 5SM -SHRA BR VCTS BKN008CB PROB30 2719/2723
      4SM TSRA BKN008CB
     FM280000 04010KT 5SM -RA BR OVC006=



000
FTUS44 KFWD 262325
TAFFTW
TAF
KFTW 262325Z 2700/2724 15008KT P6SM VCTS SCT035 BKN060CB
     FM270500 12012KT 4SM -TSRA BKN020CB OVC080
     FM271000 09010KT P6SM VCSH OVC015
     FM271600 09010KT 5SM -RA BR VCTS SCT008CB OVC015
     FM271900 06010KT 5SM -SHRA BR VCTS BKN008CB PROB30 2719/2723
      4SM TSRA BKN008CB=



000
FTUS44 KFWD 262125 AAB
TAFFTW
TAF AMD
KFTW 262125Z 2621/2718 16009KT P6SM FEW035 BKN130
      TEMPO 2621/2624 P6SM -TSRA BKN130CB
     FM270200 14011KT P6SM VCTS BKN060CB
     FM270600 12012KT 4SM TSRA BKN025CB OVC080
     FM271000 07010KT P6SM VCSH BKN015
     FM271300 06010KT P6SM BKN012=



000
FTUS44 KFWD 262124 AAC
TAFDFW
TAF AMD
KDFW 262124Z 2621/2724 16008KT P6SM SCT035 BKN130
      TEMPO 2621/2624 P6SM -TSRA BKN140CB
     FM270200 14011KT P6SM VCTS BKN060CB
     FM270600 12012KT 4SM TSRA BKN025CB OVC080
     FM271000 07010KT P6SM VCSH BKN015
     FM271300 06010KT P6SM BKN012=



000
FTUS44 KFWD 262059 AAB
TAFACT
TAF AMD
KACT 262059Z 2621/2718 11009KT 6SM HZ FEW045 SCT120
     FM270000 16015KT 4SM TSRA BKN015CB
     FM270400 12012KT P6SM VCTS BKN025CB OVC150
     FM271000 06010KT P6SM BKN015
     FM271600 05008KT P6SM BKN030=



000
FTUS44 KFWD 262059 AAB
TAFDFW
TAF AMD
KDFW 262059Z 2621/2724 16008KT P6SM SCT035 BKN130
     FM270200 14011KT P6SM VCTS BKN060CB
     FM270600 12012KT 4SM TSRA BKN025CB OVC080
     FM271000 07010KT P6SM VCSH BKN015
     FM271300 06010KT P6SM BKN012=



000
FTUS44 KFWD 262059 AAA
TAFFTW
TAF AMD
KFTW 262059Z 2621/2718 16009KT P6SM FEW035 BKN130
     FM270200 14011KT P6SM VCTS BKN060CB
     FM270600 12012KT 4SM TSRA BKN025CB OVC080
     FM271000 07010KT P6SM VCSH BKN015
     FM271300 06010KT P6SM BKN012=



000
FTUS44 KFWD 261908 AAA
TAFDFW
TAF AMD
KDFW 261908Z 2619/2724 21012KT P6SM VCTS SCT035CB BKN140
     FM262100 15011KT P6SM BKN050 OVC200
     FM270200 14011KT P6SM VCTS BKN060CB
     FM270600 12012KT 4SM TSRA BKN025CB OVC080
     FM271000 07010KT P6SM VCSH BKN015
     FM271300 06010KT P6SM BKN012=



000
FTUS44 KFWD 261811 AAA
TAFACT
TAF AMD
KACT 261811Z 2618/2718 17007KT P6SM VCTS SCT015CB BKN110
     FM262100 15012KT P6SM BKN025
     FM262300 16015KT 4SM TSRA BKN015CB
     FM270400 12012KT P6SM VCTS BKN025CB OVC150
     FM271000 06010KT P6SM BKN015
     FM271600 05008KT P6SM BKN030=



000
FTUS44 KFWD 261724
TAFDFW
TAF
KDFW 261724Z 2618/2724 18008KT P6SM FEW020 OVC200
     FM262000 17012KT P6SM VCTS BKN090CB
     FM262200 15011KT P6SM BKN050 OVC200
     FM270200 14011KT P6SM VCTS BKN060CB
     FM270600 12012KT 4SM TSRA BKN025CB OVC080
     FM271000 07010KT P6SM VCSH BKN015
     FM271300 06010KT P6SM BKN012=



000
FTUS44 KFWD 261724
TAFACT
TAF
KACT 261724Z 2618/2718 17012KT P6SM VCTS BKN020CB
     FM262100 15012KT P6SM BKN025
     FM262300 16015KT 4SM TSRA BKN015CB
     FM270400 12012KT P6SM VCTS BKN025CB OVC150
     FM271000 06010KT P6SM BKN015
     FM271600 05008KT P6SM BKN030=



000
FTUS44 KFWD 261724
TAFFTW
TAF
KFTW 261724Z 2618/2718 18008KT P6SM FEW020 OVC200
     FM262000 17012KT P6SM VCTS BKN090CB
     FM262200 15011KT P6SM BKN050 OVC200
     FM270200 14011KT P6SM VCTS BKN060CB
     FM270600 12012KT 4SM TSRA BKN025CB OVC080
     FM271000 07010KT P6SM VCSH BKN015
     FM271300 06010KT P6SM BKN012=



000
FTUS44 KFWD 261622 AAB
TAFACT
TAF AMD
KACT 261622Z 2616/2712 19010KT P6SM VCSH BKN015 OVC150
      TEMPO 2616/2618 BKN009
     FM261900 17012KT P6SM VCTS BKN080CB
     FM262300 14011KT P6SM VCTS BKN040CB OVC080
      TEMPO 2623/2703 4SM TSRA BKN015CB
     FM270300 12012KT 4SM TSRA BKN025CB OVC080
     FM270800 06010KT P6SM VCSH BKN015=



000
FTUS44 KFWD 261622 AAB
TAFACT
TAF AMD
KACT 261622Z 2616/2712 19010KT P6SM VCSH BKN015 OVC150
      TEMPO 2616/2618 BKN009
     FM261900 17012KT P6SM VCTS BKN080CB
     FM262300 14011KT P6SM VCTS BKN040CB OVC080
      TEMPO 2623/2703 4SM TSRA BKN015CB
     FM270300 12012KT 4SM TSRA BKN025CB OVC080
     FM270800 06010KT P6SM VCSH BKN015=



000
FTUS44 KFWD 261502 AAA
TAFFTW
TAF AMD
KFTW 261502Z 2615/2712 21008KT P6SM SCT150
     FM262000 17012KT P6SM VCTS BKN080CB
     FM262200 14011KT P6SM BKN080
     FM270000 14011KT P6SM VCTS BKN060CB
     FM270400 12012KT 4SM TSRA BKN025CB OVC080
     FM270900 06010KT P6SM VCSH BKN015=



000
FTUS44 KFWD 261502 AAA
TAFACT
TAF AMD
KACT 261502Z 2615/2712 19010KT P6SM SCT020 OVC150
     FM262000 17012KT P6SM VCTS BKN080CB
     FM262300 14011KT P6SM VCTS BKN040CB OVC080
      TEMPO 2623/2703 4SM TSRA BKN015CB
     FM270300 12012KT 4SM TSRA BKN025CB OVC080
     FM270800 06010KT P6SM VCSH BKN015=



000
FTUS44 KFWD 261502 AAB
TAFDFW
TAF AMD
KDFW 261502Z 2615/2718 18008KT P6SM FEW120
     FM262000 17012KT P6SM VCTS BKN100CB
     FM262200 15011KT P6SM BKN080
     FM270000 14011KT P6SM VCTS BKN060CB
     FM270400 12012KT 4SM TSRA BKN025CB OVC080
     FM270900 06010KT P6SM VCSH BKN015=



000
FTUS44 KFWD 261359 AAA
TAFDFW
TAF AMD
KDFW 261359Z 2614/2718 21008KT P6SM SCT010 SCT250
     FM261500 18008KT P6SM BKN120
     FM262000 17012KT P6SM VCTS BKN100CB
     FM262200 15011KT P6SM BKN080
     FM270000 14011KT P6SM VCTS BKN060CB
     FM270400 12012KT 4SM TSRA BKN025CB OVC080
     FM270900 06010KT P6SM VCSH BKN015=



000
FTUS44 KFWD 261359 AAA
TAFDFW
TAF AMD
KDFW 261359Z 2614/2718 21008KT P6SM SCT010 SCT250
     FM261500 18008KT P6SM BKN120
     FM262000 17012KT P6SM VCTS BKN100CB
     FM262200 15011KT P6SM BKN080
     FM270000 14011KT P6SM VCTS BKN060CB
     FM270400 12012KT 4SM TSRA BKN025CB OVC080
     FM270900 06010KT P6SM VCSH BKN015=



000
FTUS44 KFWD 261123
TAFFTW
TAF
KFTW 261123Z 2612/2712 21008KT P6SM SCT150
     FM262000 17012KT P6SM VCTS BKN080CB
     FM262200 14011KT P6SM BKN080
     FM270000 14011KT P6SM VCTS BKN060CB
     FM270400 12012KT 4SM TSRA BKN025CB OVC080
     FM270900 06010KT P6SM VCSH BKN015=



000
FTUS44 KFWD 261123
TAFACT
TAF
KACT 261123Z 2612/2712 19007KT 4SM BR BKN006
     FM261300 19006KT 4SM BR BKN010
     FM261500 19010KT P6SM SCT020 OVC150
     FM262000 17012KT P6SM VCTS BKN080CB
     FM262300 14011KT P6SM VCTS BKN040CB OVC080
      TEMPO 2623/2703 4SM TSRA BKN015CB
     FM270300 12012KT 4SM TSRA BKN025CB OVC080
     FM270800 06010KT P6SM VCSH BKN015=



000
FTUS44 KFWD 261123
TAFDFW
TAF
KDFW 261123Z 2612/2718 21008KT P6SM SCT010 SCT250
      TEMPO 2613/2615 BKN008
     FM261500 18008KT P6SM BKN120
     FM262000 17012KT P6SM VCTS BKN100CB
     FM262200 15011KT P6SM BKN080
     FM270000 14011KT P6SM VCTS BKN060CB
     FM270400 12012KT 4SM TSRA BKN025CB OVC080
     FM270900 06010KT P6SM VCSH BKN015=



000
FTUS44 KFWD 261123
TAFDFW
TAF
KDFW 261123Z 2612/2718 21008KT P6SM SCT010 SCT250
      TEMPO 2613/2615 BKN008
     FM261500 18008KT P6SM BKN120
     FM262000 17012KT P6SM VCTS BKN100CB
     FM262200 15011KT P6SM BKN080
     FM270000 14011KT P6SM VCTS BKN060CB
     FM270400 12012KT 4SM TSRA BKN025CB OVC080
     FM270900 06010KT P6SM VCSH BKN015=



000
FTUS44 KFWD 261123
TAFFTW
TAF
KFTW 261123Z 2612/2712 21008KT P6SM SCT150
     FM262000 17012KT P6SM VCTS BKN080CB
     FM262200 14011KT P6SM BKN080
     FM270000 14011KT P6SM VCTS BKN060CB
     FM270400 12012KT 4SM TSRA BKN025CB OVC080
     FM270900 06010KT P6SM VCSH BKN015=



000
FTUS44 KFWD 261123
TAFACT
TAF
KACT 261123Z 2612/2712 19007KT 4SM BR BKN006
     FM261300 19006KT 4SM BR BKN010
     FM261500 19010KT P6SM SCT020 OVC150
     FM262000 17012KT P6SM VCTS BKN080CB
     FM262300 14011KT P6SM VCTS BKN040CB OVC080
      TEMPO 2623/2703 4SM TSRA BKN015CB
     FM270300 12012KT 4SM TSRA BKN025CB OVC080
     FM270800 06010KT P6SM VCSH BKN015=



000
FTUS44 KFWD 260915 AAA
TAFFTW
TAF AMD
KFTW 260915Z 2609/2706 21008KT P6SM SCT250
     FM262000 17012KT P6SM VCTS BKN080CB
     FM262300 14011KT P6SM VCTS BKN040CB OVC080
     FM270400 12012KT 4SM TSRA BKN025CB OVC080=



000
FTUS44 KFWD 260915 AAA
TAFDFW
TAF AMD
KDFW 260915Z 2609/2712 21008KT P6SM SCT250
     FM262000 17012KT P6SM VCTS BKN080CB
     FM262300 14011KT P6SM VCTS BKN040CB OVC080
     FM270400 12012KT 4SM TSRA BKN025CB OVC080
     FM270900 08010KT P6SM VCSH BKN015=



000
FTUS44 KFWD 260915 AAB
TAFACT
TAF AMD
KACT 260915Z 2609/2706 18005KT P6SM SKC
     FM261000 18006KT 5SM BR SCT005
     FM261100 19007KT 4SM BR BKN006
     FM261400 19006KT 4SM BR BKN010
     FM261500 19010KT P6SM SCT020
     FM262000 17012KT P6SM VCTS BKN080CB
     FM262300 14011KT P6SM VCTS BKN040CB OVC080
      TEMPO 2623/2703 2SM TSRA BKN015CB=



000
FTUS44 KFWD 260818 AAA
TAFACT
TAF AMD
KACT 260818Z 2608/2706 18005KT P6SM SKC
     FM261000 18006KT 5SM BR SCT005
      TEMPO 2610/2613 2SM BR BKN005
     FM261430 19006KT 4SM BR BKN005 BKN120
     FM261500 19010KT P6SM SCT020
     FM262300 14014KT P6SM VCTS BKN040CB OVC080
     FM270400 12012KT P6SM SCT040 OVC080=



000
FTUS44 KFWD 260533
TAFACT
TAF
KACT 260533Z 2606/2706 18005KT P6SM SKC
     FM260900 18005KT 3SM BR SKC
     FM261000 18006KT 2SM BR SKC
      TEMPO 2611/2613 1/2SM FG VV002
     FM261430 19006KT 4SM BR BKN003 BKN120
     FM261500 19010KT P6SM SCT020
     FM262300 14014KT P6SM VCTS BKN040CB OVC080
     FM270400 12012KT P6SM SCT040 OVC080=



000
FTUS44 KFWD 260520
TAFDFW
TAF
KDFW 260520Z 2606/2712 21008KT P6SM SCT250
     FM262100 16012KT P6SM SCT040 BKN120
     FM262300 14014KT P6SM VCTS BKN040CB OVC080
     FM270400 12012KT P6SM SCT040 OVC080
     FM270900 08010KT 6SM BR SCT008 BKN015=



000
FTUS44 KFWD 260520
TAFFTW
TAF
KFTW 260520Z 2606/2706 21008KT P6SM SCT250
     FM262100 16012KT P6SM SCT040 BKN120
     FM262300 14014KT P6SM VCTS BKN040CB OVC080
     FM270400 12012KT P6SM SCT040 OVC080=



000
FTUS44 KFWD 260520
TAFDFW
TAF
KDFW 260520Z 2606/2712 21008KT P6SM SCT250
     FM262100 16012KT P6SM SCT040 BKN120
     FM262300 14014KT P6SM VCTS BKN040CB OVC080
     FM270400 12012KT P6SM SCT040 OVC080
     FM270900 08010KT 6SM BR SCT008 BKN015=



000
FTUS44 KFWD 260520
TAFFTW
TAF
KFTW 260520Z 2606/2706 21008KT P6SM SCT250
     FM262100 16012KT P6SM SCT040 BKN120
     FM262300 14014KT P6SM VCTS BKN040CB OVC080
     FM270400 12012KT P6SM SCT040 OVC080=



000
FTUS44 KFWD 252333
TAFACT
TAF
KACT 252333Z 2600/2624 23008KT P6SM SKC
     FM261700 21008KT P6SM SCT040 BKN120=



000
FTUS44 KFWD 252333
TAFFTW
TAF
KFTW 252333Z 2600/2624 24011KT P6SM SKC
     FM260200 21008KT P6SM SCT250
     FM262100 17012KT P6SM SCT040 BKN120=



000
FTUS44 KFWD 252333
TAFDFW
TAF
KDFW 252333Z 2600/2706 26011KT P6SM SKC
     FM260200 21008KT P6SM SCT250
     FM262100 17012KT P6SM SCT040 BKN120
     FM270200 13014KT P6SM VCTS SCT040CB OVC080=



000
FTUS44 KFWD 252058 AAA
TAFFTW
TAF AMD
KFTW 252058Z 2521/2618 24012KT P6SM SKC
     FM260100 21008KT P6SM SCT250=



000
FTUS44 KFWD 252058 AAA
TAFDFW
TAF AMD
KDFW 252058Z 2521/2624 24016KT P6SM SKC
     FM260100 21008KT P6SM SCT250=



000
FTUS44 KFWD 252058 AAA
TAFACT
TAF AMD
KACT 252058Z 2521/2618 25012KT P6SM SKC
     FM260000 21008KT P6SM SKC=



000
FTUS44 KFWD 251738
TAFACT
TAF
KACT 251738Z 2518/2618 25013KT P6SM SKC
     FM260000 21008KT P6SM SKC=



000
FTUS44 KFWD 251738
TAFDFW
TAF
KDFW 251738Z 2518/2624 24015KT P6SM SKC
     FM260100 21008KT P6SM SCT250=



000
FTUS44 KFWD 251738
TAFFTW
TAF
KFTW 251738Z 2518/2618 24014KT P6SM SKC
     FM260100 21008KT P6SM SCT250=



000
FTUS44 KFWD 251453 AAA
TAFACT
TAF AMD
KACT 251453Z 2515/2612 24013KT P6SM SCT250
     FM260000 20008KT P6SM SKC=



000
FTUS44 KFWD 251453 AAA
TAFDFW
TAF AMD
KDFW 251453Z 2515/2618 24015KT P6SM SCT250
     FM260100 21008KT P6SM SCT250=



000
FTUS44 KFWD 251453 AAA
TAFFTW
TAF AMD
KFTW 251453Z 2515/2612 24015KT P6SM SCT250
     FM260100 21008KT P6SM SCT250=



000
FTUS44 KFWD 251453 AAA
TAFDFW
TAF AMD
KDFW 251453Z 2515/2618 24015KT P6SM SCT250
     FM260100 21008KT P6SM SCT250=



000
FTUS44 KFWD 251453 AAA
TAFACT
TAF AMD
KACT 251453Z 2515/2612 24013KT P6SM SCT250
     FM260000 20008KT P6SM SKC=



000
FTUS44 KFWD 251453 AAA
TAFFTW
TAF AMD
KFTW 251453Z 2515/2612 24015KT P6SM SCT250
     FM260100 21008KT P6SM SCT250=



000
FTUS44 KFWD 251140
TAFACT
TAF
KACT 251140Z 2512/2612 21008KT P6SM BKN250
      TEMPO 2512/2514 2SM BR
     FM251500 25013KT P6SM SCT250
     FM260000 20008KT P6SM SKC=



000
FTUS44 KFWD 251140
TAFFTW
TAF
KFTW 251140Z 2512/2612 22008KT P6SM SCT250
     FM251300 24015KT P6SM SCT250
     FM260100 21008KT P6SM SCT250=



000
FTUS44 KFWD 251140
TAFDFW
TAF
KDFW 251140Z 2512/2618 22008KT P6SM SCT250
     FM251300 24015KT P6SM SCT250
     FM260100 21008KT P6SM SCT250=



000
FTUS44 KFWD 251140
TAFACT
TAF
KACT 251140Z 2512/2612 21008KT P6SM BKN250
      TEMPO 2512/2514 2SM BR
     FM251500 25013KT P6SM SCT250
     FM260000 20008KT P6SM SKC=



000
FTUS44 KFWD 251140
TAFFTW
TAF
KFTW 251140Z 2512/2612 22008KT P6SM SCT250
     FM251300 24015KT P6SM SCT250
     FM260100 21008KT P6SM SCT250=



000
FTUS44 KFWD 251140
TAFDFW
TAF
KDFW 251140Z 2512/2618 22008KT P6SM SCT250
     FM251300 24015KT P6SM SCT250
     FM260100 21008KT P6SM SCT250=



000
FTUS44 KFWD 250907 AAA
TAFACT
TAF AMD
KACT 250907Z 2509/2606 21008KT P6SM BKN250
     FM251500 25013KT P6SM SCT250
     FM260000 20008KT P6SM SKC=



000
FTUS44 KFWD 250907 AAA
TAFFTW
TAF AMD
KFTW 250907Z 2509/2606 22008KT P6SM SCT250
     FM251300 24015KT P6SM SCT250
     FM260100 21008KT P6SM SCT250=



000
FTUS44 KFWD 250907 AAA
TAFFTW
TAF AMD
KFTW 250907Z 2509/2606 22008KT P6SM SCT250
     FM251300 24015KT P6SM SCT250
     FM260100 21008KT P6SM SCT250=



000
FTUS44 KFWD 250907 AAA
TAFDFW
TAF AMD
KDFW 250907Z 2509/2612 22008KT P6SM SCT250
     FM251300 24015KT P6SM SCT250
     FM260100 21008KT P6SM SCT250=



000
FTUS44 KFWD 250907 AAA
TAFACT
TAF AMD
KACT 250907Z 2509/2606 21008KT P6SM BKN250
     FM251500 25013KT P6SM SCT250
     FM260000 20008KT P6SM SKC=



000
FTUS44 KFWD 250907 AAA
TAFDFW
TAF AMD
KDFW 250907Z 2509/2612 22008KT P6SM SCT250
     FM251300 24015KT P6SM SCT250
     FM260100 21008KT P6SM SCT250=



000
FTUS44 KFWD 250525
TAFFTW
TAF
KFTW 250525Z 2506/2606 15006KT 6SM BR BKN250
     FM251000 23013KT P6SM SCT015
     FM251300 26015KT P6SM SCT250
     FM260100 21008KT P6SM SCT250=



000
FTUS44 KFWD 250525
TAFDFW
TAF
KDFW 250525Z 2506/2612 15006KT 6SM BR FEW004 BKN250
     FM251000 23013KT P6SM SCT015
     FM251300 26015KT P6SM SCT250
     FM260100 21008KT P6SM SCT250=



000
FTUS44 KFWD 250525
TAFACT
TAF
KACT 250525Z 2506/2606 21008KT P6SM BKN250
     FM250800 23007KT P6SM SCT050 BKN250
     FM251700 25010G20KT P6SM SCT250
     FM260000 20008KT P6SM SKC=



    US Dept of Commerce
    National Oceanic and Atmospheric Administration
    National Weather Service
    1325 East West Highway
    Silver Spring, MD 20910
    Page Author: NWS Internet Services Team
Disclaimer
Information Quality
Credits
Glossary
Privacy Policy
Freedom of Information Act (FOIA)
About Us
Career Opportunities